sensor_id;sensor_type;location;lat;lon;timestamp;P1;durP1;ratioP1;P2;durP2;ratioP2
2386;SDS011;49473;50.772;8.768;2022-09-17T00:01:16;5.50;;;5.07;;
2386;SDS011;49473;50.772;8.768;2022-09-17T00:03:47;12.83;;;5.87;;
2386;SDS011;49473;50.772;8.768;2022-09-17T00:06:16;6.13;;;5.60;;
2386;SDS011;49473;50.772;8.768;2022-09-17T00:08:43;8.53;;;6.20;;
2386;SDS011;49473;50.772;8.768;2022-09-17T00:11:11;8.30;;;5.47;;
2386;SDS011;49473;50.772;8.768;2022-09-17T00:13:40;6.17;;;5.10;;
2386;SDS011;49473;50.772;8.768;2022-09-17T00:16:09;7.83;;;5.87;;
2386;SDS011;49473;50.772;8.768;2022-09-17T00:18:36;6.13;;;5.63;;
2386;SDS011;49473;50.772;8.768;2022-09-17T00:21:05;5.73;;;5.23;;
2386;SDS011;49473;50.772;8.768;2022-09-17T00:23:33;6.00;;;5.23;;
2386;SDS011;49473;50.772;8.768;2022-09-17T00:26:03;6.03;;;5.40;;
2386;SDS011;49473;50.772;8.768;2022-09-17T00:28:31;5.43;;;4.93;;
2386;SDS011;49473;50.772;8.768;2022-09-17T00:30:58;5.37;;;4.87;;
2386;SDS011;49473;50.772;8.768;2022-09-17T00:33:26;11.00;;;5.93;;
2386;SDS011;49473;50.772;8.768;2022-09-17T00:35:56;5.90;;;5.37;;
2386;SDS011;49473;50.772;8.768;2022-09-17T00:38:24;5.30;;;4.80;;
2386;SDS011;49473;50.772;8.768;2022-09-17T00:40:51;5.67;;;5.17;;
2386;SDS011;49473;50.772;8.768;2022-09-17T00:43:30;6.23;;;5.40;;
2386;SDS011;49473;50.772;8.768;2022-09-17T00:45:59;6.20;;;4.67;;
2386;SDS011;49473;50.772;8.768;2022-09-17T00:48:28;5.60;;;5.00;;
2386;SDS011;49473;50.772;8.768;2022-09-17T00:50:54;5.30;;;4.90;;
2386;SDS011;49473;50.772;8.768;2022-09-17T00:53:25;5.80;;;5.27;;
2386;SDS011;49473;50.772;8.768;2022-09-17T00:55:55;5.17;;;4.77;;
2386;SDS011;49473;50.772;8.768;2022-09-17T00:58:26;7.03;;;6.10;;
2386;SDS011;49473;50.772;8.768;2022-09-17T01:00:54;5.93;;;5.43;;
2386;SDS011;49473;50.772;8.768;2022-09-17T01:03:21;8.83;;;5.70;;
2386;SDS011;49473;50.772;8.768;2022-09-17T01:05:51;7.10;;;5.70;;
2386;SDS011;49473;50.772;8.768;2022-09-17T01:08:28;6.63;;;6.00;;
2386;SDS011;49473;50.772;8.768;2022-09-17T01:11:08;6.43;;;5.93;;
2386;SDS011;49473;50.772;8.768;2022-09-17T01:13:48;9.77;;;6.40;;
2386;SDS011;49473;50.772;8.768;2022-09-17T01:16:26;8.93;;;5.63;;
2386;SDS011;49473;50.772;8.768;2022-09-17T01:18:59;7.70;;;6.00;;
2386;SDS011;49473;50.772;8.768;2022-09-17T01:21:41;6.80;;;6.20;;
2386;SDS011;49473;50.772;8.768;2022-09-17T01:27:21;7.03;;;6.30;;
2386;SDS011;49473;50.772;8.768;2022-09-17T01:30:28;6.10;;;5.57;;
2386;SDS011;49473;50.772;8.768;2022-09-17T01:33:13;7.90;;;6.33;;
2386;SDS011;49473;50.772;8.768;2022-09-17T01:35:47;6.70;;;6.10;;
2386;SDS011;49473;50.772;8.768;2022-09-17T01:38:21;9.27;;;6.67;;
2386;SDS011;49473;50.772;8.768;2022-09-17T01:40:54;7.47;;;6.07;;
2386;SDS011;49473;50.772;8.768;2022-09-17T01:43:29;6.47;;;5.73;;
2386;SDS011;49473;50.772;8.768;2022-09-17T01:46:03;6.87;;;5.57;;
2386;SDS011;49473;50.772;8.768;2022-09-17T01:48:38;6.93;;;6.23;;
2386;SDS011;49473;50.772;8.768;2022-09-17T01:51:08;7.10;;;6.60;;
2386;SDS011;49473;50.772;8.768;2022-09-17T01:53:40;5.53;;;5.03;;
2386;SDS011;49473;50.772;8.768;2022-09-17T01:56:12;6.30;;;5.67;;
2386;SDS011;49473;50.772;8.768;2022-09-17T01:58:44;6.03;;;5.53;;
2386;SDS011;49473;50.772;8.768;2022-09-17T02:01:17;7.00;;;6.50;;
2386;SDS011;49473;50.772;8.768;2022-09-17T02:03:47;6.20;;;5.80;;
2386;SDS011;49473;50.772;8.768;2022-09-17T02:06:20;6.63;;;6.03;;
2386;SDS011;49473;50.772;8.768;2022-09-17T02:08:55;5.03;;;4.57;;
2386;SDS011;49473;50.772;8.768;2022-09-17T02:11:26;5.33;;;4.93;;
2386;SDS011;49473;50.772;8.768;2022-09-17T02:13:54;6.50;;;5.00;;
2386;SDS011;49473;50.772;8.768;2022-09-17T02:16:26;5.67;;;5.17;;
2386;SDS011;49473;50.772;8.768;2022-09-17T02:18:57;5.87;;;4.43;;
2386;SDS011;49473;50.772;8.768;2022-09-17T02:21:29;4.53;;;4.13;;
2386;SDS011;49473;50.772;8.768;2022-09-17T02:24:15;3.90;;;3.70;;
2386;SDS011;49473;50.772;8.768;2022-09-17T02:26:47;4.30;;;4.00;;
2386;SDS011;49473;50.772;8.768;2022-09-17T02:29:22;5.70;;;4.33;;
2386;SDS011;49473;50.772;8.768;2022-09-17T02:31:53;3.20;;;3.00;;
2386;SDS011;49473;50.772;8.768;2022-09-17T02:34:19;4.23;;;3.87;;
2386;SDS011;49473;50.772;8.768;2022-09-17T02:36:51;3.40;;;3.13;;
2386;SDS011;49473;50.772;8.768;2022-09-17T02:39:18;3.20;;;3.00;;
2386;SDS011;49473;50.772;8.768;2022-09-17T02:41:45;3.87;;;2.93;;
2386;SDS011;49473;50.772;8.768;2022-09-17T02:44:21;3.33;;;3.00;;
2386;SDS011;49473;50.772;8.768;2022-09-17T02:47:06;4.80;;;3.30;;
2386;SDS011;49473;50.772;8.768;2022-09-17T02:50:17;3.67;;;3.00;;
2386;SDS011;49473;50.772;8.768;2022-09-17T02:53:04;3.50;;;3.30;;
2386;SDS011;49473;50.772;8.768;2022-09-17T02:55:40;3.73;;;3.43;;
2386;SDS011;49473;50.772;8.768;2022-09-17T02:58:16;3.40;;;2.83;;
2386;SDS011;49473;50.772;8.768;2022-09-17T03:00:49;4.43;;;3.47;;
2386;SDS011;49473;50.772;8.768;2022-09-17T03:03:20;4.10;;;3.70;;
2386;SDS011;49473;50.772;8.768;2022-09-17T03:05:51;3.90;;;3.60;;
2386;SDS011;49473;50.772;8.768;2022-09-17T03:08:19;3.70;;;3.40;;
2386;SDS011;49473;50.772;8.768;2022-09-17T03:10:54;4.30;;;4.00;;
2386;SDS011;49473;50.772;8.768;2022-09-17T03:13:20;4.50;;;4.20;;
2386;SDS011;49473;50.772;8.768;2022-09-17T03:15:47;4.57;;;3.60;;
2386;SDS011;49473;50.772;8.768;2022-09-17T03:18:14;5.07;;;4.10;;
2386;SDS011;49473;50.772;8.768;2022-09-17T03:20:42;4.47;;;4.00;;
2386;SDS011;49473;50.772;8.768;2022-09-17T03:23:10;6.03;;;4.10;;
2386;SDS011;49473;50.772;8.768;2022-09-17T03:25:37;5.40;;;4.87;;
2386;SDS011;49473;50.772;8.768;2022-09-17T03:28:04;5.13;;;4.60;;
2386;SDS011;49473;50.772;8.768;2022-09-17T03:30:30;7.60;;;4.87;;
2386;SDS011;49473;50.772;8.768;2022-09-17T03:32:57;5.43;;;5.00;;
2386;SDS011;49473;50.772;8.768;2022-09-17T03:35:24;8.63;;;5.43;;
2386;SDS011;49473;50.772;8.768;2022-09-17T03:37:52;7.47;;;4.70;;
2386;SDS011;49473;50.772;8.768;2022-09-17T03:40:18;5.00;;;4.60;;
2386;SDS011;49473;50.772;8.768;2022-09-17T03:42:45;7.57;;;5.60;;
2386;SDS011;49473;50.772;8.768;2022-09-17T03:45:12;5.70;;;5.10;;
2386;SDS011;49473;50.772;8.768;2022-09-17T03:47:39;7.23;;;5.57;;
2386;SDS011;49473;50.772;8.768;2022-09-17T03:50:06;6.20;;;5.47;;
2386;SDS011;49473;50.772;8.768;2022-09-17T03:52:33;6.73;;;6.07;;
2386;SDS011;49473;50.772;8.768;2022-09-17T03:55:01;9.60;;;5.13;;
2386;SDS011;49473;50.772;8.768;2022-09-17T03:57:29;6.53;;;5.83;;
2386;SDS011;49473;50.772;8.768;2022-09-17T03:59:56;8.57;;;5.60;;
2386;SDS011;49473;50.772;8.768;2022-09-17T04:02:23;10.83;;;6.07;;
2386;SDS011;49473;50.772;8.768;2022-09-17T04:04:50;6.53;;;5.37;;
2386;SDS011;49473;50.772;8.768;2022-09-17T04:07:17;9.43;;;6.27;;
2386;SDS011;49473;50.772;8.768;2022-09-17T04:09:43;9.73;;;6.13;;
2386;SDS011;49473;50.772;8.768;2022-09-17T04:12:11;7.17;;;6.50;;
2386;SDS011;49473;50.772;8.768;2022-09-17T04:14:38;9.50;;;6.20;;
2386;SDS011;49473;50.772;8.768;2022-09-17T04:17:05;11.47;;;7.00;;
2386;SDS011;49473;50.772;8.768;2022-09-17T04:19:32;8.77;;;6.53;;
2386;SDS011;49473;50.772;8.768;2022-09-17T04:21:58;7.10;;;5.67;;
2386;SDS011;49473;50.772;8.768;2022-09-17T04:24:25;7.90;;;5.83;;
2386;SDS011;49473;50.772;8.768;2022-09-17T04:26:52;7.73;;;6.20;;
2386;SDS011;49473;50.772;8.768;2022-09-17T04:29:20;9.20;;;6.27;;
2386;SDS011;49473;50.772;8.768;2022-09-17T04:31:47;9.90;;;6.53;;
2386;SDS011;49473;50.772;8.768;2022-09-17T04:34:13;9.20;;;6.90;;
2386;SDS011;49473;50.772;8.768;2022-09-17T04:36:40;9.73;;;6.90;;
2386;SDS011;49473;50.772;8.768;2022-09-17T04:39:07;8.13;;;6.33;;
2386;SDS011;49473;50.772;8.768;2022-09-17T04:41:34;11.80;;;6.20;;
2386;SDS011;49473;50.772;8.768;2022-09-17T04:44:01;8.27;;;7.00;;
2386;SDS011;49473;50.772;8.768;2022-09-17T04:46:29;10.23;;;6.63;;
2386;SDS011;49473;50.772;8.768;2022-09-17T04:48:56;14.40;;;6.70;;
2386;SDS011;49473;50.772;8.768;2022-09-17T04:51:22;8.80;;;6.00;;
2386;SDS011;49473;50.772;8.768;2022-09-17T04:53:49;9.33;;;6.07;;
2386;SDS011;49473;50.772;8.768;2022-09-17T04:56:16;9.50;;;6.03;;
2386;SDS011;49473;50.772;8.768;2022-09-17T04:58:43;9.23;;;6.30;;
2386;SDS011;49473;50.772;8.768;2022-09-17T05:01:11;8.03;;;5.70;;
2386;SDS011;49473;50.772;8.768;2022-09-17T05:03:39;11.33;;;5.97;;
2386;SDS011;49473;50.772;8.768;2022-09-17T05:06:05;10.07;;;6.50;;
2386;SDS011;49473;50.772;8.768;2022-09-17T05:08:32;9.90;;;6.00;;
2386;SDS011;49473;50.772;8.768;2022-09-17T05:10:59;9.37;;;5.53;;
2386;SDS011;49473;50.772;8.768;2022-09-17T05:13:26;8.30;;;5.93;;
2386;SDS011;49473;50.772;8.768;2022-09-17T05:15:53;12.37;;;6.33;;
2386;SDS011;49473;50.772;8.768;2022-09-17T05:18:20;12.33;;;7.53;;
2386;SDS011;49473;50.772;8.768;2022-09-17T05:20:48;9.40;;;6.43;;
2386;SDS011;49473;50.772;8.768;2022-09-17T05:23:15;7.40;;;6.03;;
2386;SDS011;49473;50.772;8.768;2022-09-17T05:25:42;10.33;;;7.00;;
2386;SDS011;49473;50.772;8.768;2022-09-17T05:28:09;7.80;;;5.77;;
2386;SDS011;49473;50.772;8.768;2022-09-17T05:30:36;10.10;;;6.17;;
2386;SDS011;49473;50.772;8.768;2022-09-17T05:33:03;8.40;;;5.97;;
2386;SDS011;49473;50.772;8.768;2022-09-17T05:35:31;11.03;;;6.30;;
2386;SDS011;49473;50.772;8.768;2022-09-17T05:38:01;10.10;;;6.43;;
2386;SDS011;49473;50.772;8.768;2022-09-17T05:40:29;7.50;;;5.00;;
2386;SDS011;49473;50.772;8.768;2022-09-17T05:42:57;11.77;;;6.43;;
2386;SDS011;49473;50.772;8.768;2022-09-17T05:45:25;10.73;;;5.17;;
2386;SDS011;49473;50.772;8.768;2022-09-17T05:47:56;10.10;;;5.53;;
2386;SDS011;49473;50.772;8.768;2022-09-17T05:50:23;11.70;;;5.57;;
2386;SDS011;49473;50.772;8.768;2022-09-17T05:52:51;9.77;;;5.20;;
2386;SDS011;49473;50.772;8.768;2022-09-17T05:55:20;8.27;;;5.10;;
2386;SDS011;49473;50.772;8.768;2022-09-17T05:57:47;14.63;;;5.43;;
2386;SDS011;49473;50.772;8.768;2022-09-17T06:00:14;11.47;;;7.20;;
2386;SDS011;49473;50.772;8.768;2022-09-17T06:02:42;10.53;;;5.40;;
2386;SDS011;49473;50.772;8.768;2022-09-17T06:05:09;10.00;;;6.20;;
2386;SDS011;49473;50.772;8.768;2022-09-17T06:07:36;10.60;;;5.57;;
2386;SDS011;49473;50.772;8.768;2022-09-17T06:10:04;7.70;;;5.60;;
2386;SDS011;49473;50.772;8.768;2022-09-17T06:12:34;13.83;;;6.10;;
2386;SDS011;49473;50.772;8.768;2022-09-17T06:15:01;9.67;;;5.80;;
2386;SDS011;49473;50.772;8.768;2022-09-17T06:17:31;12.57;;;6.17;;
2386;SDS011;49473;50.772;8.768;2022-09-17T06:19:58;10.80;;;5.30;;
2386;SDS011;49473;50.772;8.768;2022-09-17T06:22:25;13.97;;;5.50;;
2386;SDS011;49473;50.772;8.768;2022-09-17T06:24:52;12.20;;;5.60;;
2386;SDS011;49473;50.772;8.768;2022-09-17T06:27:19;9.17;;;4.70;;
2386;SDS011;49473;50.772;8.768;2022-09-17T06:29:47;8.70;;;4.40;;
2386;SDS011;49473;50.772;8.768;2022-09-17T06:32:13;6.43;;;4.93;;
2386;SDS011;49473;50.772;8.768;2022-09-17T06:34:41;7.10;;;5.23;;
2386;SDS011;49473;50.772;8.768;2022-09-17T06:37:07;6.93;;;5.00;;
2386;SDS011;49473;50.772;8.768;2022-09-17T06:39:34;8.97;;;4.30;;
2386;SDS011;49473;50.772;8.768;2022-09-17T06:42:01;10.73;;;4.67;;
2386;SDS011;49473;50.772;8.768;2022-09-17T06:44:28;8.47;;;5.10;;
2386;SDS011;49473;50.772;8.768;2022-09-17T06:46:56;9.70;;;5.13;;
2386;SDS011;49473;50.772;8.768;2022-09-17T06:49:23;7.60;;;5.00;;
2386;SDS011;49473;50.772;8.768;2022-09-17T06:51:49;6.47;;;4.70;;
2386;SDS011;49473;50.772;8.768;2022-09-17T06:54:16;10.70;;;5.50;;
2386;SDS011;49473;50.772;8.768;2022-09-17T06:56:44;10.37;;;4.93;;
2386;SDS011;49473;50.772;8.768;2022-09-17T06:59:11;6.80;;;4.80;;
2386;SDS011;49473;50.772;8.768;2022-09-17T07:01:37;8.47;;;4.97;;
2386;SDS011;49473;50.772;8.768;2022-09-17T07:04:06;8.10;;;4.90;;
2386;SDS011;49473;50.772;8.768;2022-09-17T07:06:32;10.50;;;4.93;;
2386;SDS011;49473;50.772;8.768;2022-09-17T07:08:59;9.00;;;5.37;;
2386;SDS011;49473;50.772;8.768;2022-09-17T07:11:28;9.67;;;4.17;;
2386;SDS011;49473;50.772;8.768;2022-09-17T07:13:55;9.90;;;4.10;;
2386;SDS011;49473;50.772;8.768;2022-09-17T07:16:21;9.67;;;3.93;;
2386;SDS011;49473;50.772;8.768;2022-09-17T07:18:50;7.70;;;3.80;;
2386;SDS011;49473;50.772;8.768;2022-09-17T07:21:18;8.00;;;3.60;;
2386;SDS011;49473;50.772;8.768;2022-09-17T07:23:45;4.90;;;3.50;;
2386;SDS011;49473;50.772;8.768;2022-09-17T07:26:12;6.30;;;4.00;;
2386;SDS011;49473;50.772;8.768;2022-09-17T07:28:40;8.30;;;4.03;;
2386;SDS011;49473;50.772;8.768;2022-09-17T07:31:08;5.73;;;3.00;;
2386;SDS011;49473;50.772;8.768;2022-09-17T07:33:36;5.63;;;3.77;;
2386;SDS011;49473;50.772;8.768;2022-09-17T07:36:04;8.60;;;3.37;;
2386;SDS011;49473;50.772;8.768;2022-09-17T07:38:34;4.97;;;3.97;;
2386;SDS011;49473;50.772;8.768;2022-09-17T07:41:01;5.87;;;3.87;;
2386;SDS011;49473;50.772;8.768;2022-09-17T07:43:29;6.97;;;3.50;;
2386;SDS011;49473;50.772;8.768;2022-09-17T07:45:58;8.07;;;3.57;;
2386;SDS011;49473;50.772;8.768;2022-09-17T07:48:26;5.20;;;4.47;;
2386;SDS011;49473;50.772;8.768;2022-09-17T07:50:54;12.53;;;4.63;;
2386;SDS011;49473;50.772;8.768;2022-09-17T07:53:21;4.70;;;3.33;;
2386;SDS011;49473;50.772;8.768;2022-09-17T07:55:53;9.43;;;4.00;;
2386;SDS011;49473;50.772;8.768;2022-09-17T07:58:22;7.07;;;3.77;;
2386;SDS011;49473;50.772;8.768;2022-09-17T08:00:53;9.97;;;3.70;;
2386;SDS011;49473;50.772;8.768;2022-09-17T08:03:25;4.10;;;3.57;;
2386;SDS011;49473;50.772;8.768;2022-09-17T08:05:52;6.10;;;3.50;;
2386;SDS011;49473;50.772;8.768;2022-09-17T08:08:19;4.30;;;3.40;;
2386;SDS011;49473;50.772;8.768;2022-09-17T08:10:45;7.70;;;3.80;;
2386;SDS011;49473;50.772;8.768;2022-09-17T08:13:13;5.70;;;3.60;;
2386;SDS011;49473;50.772;8.768;2022-09-17T08:15:40;6.97;;;3.73;;
2386;SDS011;49473;50.772;8.768;2022-09-17T08:18:07;5.50;;;3.20;;
2386;SDS011;49473;50.772;8.768;2022-09-17T08:20:33;5.37;;;3.27;;
2386;SDS011;49473;50.772;8.768;2022-09-17T08:23:00;6.57;;;3.50;;
2386;SDS011;49473;50.772;8.768;2022-09-17T08:25:27;4.17;;;3.23;;
2386;SDS011;49473;50.772;8.768;2022-09-17T08:27:54;4.23;;;2.77;;
2386;SDS011;49473;50.772;8.768;2022-09-17T08:30:22;8.60;;;2.93;;
2386;SDS011;49473;50.772;8.768;2022-09-17T08:32:49;5.17;;;3.13;;
2386;SDS011;49473;50.772;8.768;2022-09-17T08:35:16;2.97;;;2.43;;
2386;SDS011;49473;50.772;8.768;2022-09-17T08:37:43;5.00;;;2.27;;
2386;SDS011;49473;50.772;8.768;2022-09-17T08:40:12;4.90;;;2.33;;
2386;SDS011;49473;50.772;8.768;2022-09-17T08:42:48;4.10;;;2.23;;
2386;SDS011;49473;50.772;8.768;2022-09-17T08:45:23;3.70;;;2.10;;
2386;SDS011;49473;50.772;8.768;2022-09-17T08:47:51;5.27;;;2.33;;
2386;SDS011;49473;50.772;8.768;2022-09-17T08:50:26;5.47;;;2.10;;
2386;SDS011;49473;50.772;8.768;2022-09-17T08:53:05;2.33;;;1.90;;
2386;SDS011;49473;50.772;8.768;2022-09-17T08:55:39;3.53;;;2.13;;
2386;SDS011;49473;50.772;8.768;2022-09-17T08:58:23;3.13;;;2.20;;
2386;SDS011;49473;50.772;8.768;2022-09-17T09:01:01;3.10;;;1.90;;
2386;SDS011;49473;50.772;8.768;2022-09-17T09:03:37;8.23;;;2.50;;
2386;SDS011;49473;50.772;8.768;2022-09-17T09:06:17;6.97;;;2.37;;
2386;SDS011;49473;50.772;8.768;2022-09-17T09:08:49;4.73;;;2.87;;
2386;SDS011;49473;50.772;8.768;2022-09-17T09:11:24;3.90;;;2.57;;
2386;SDS011;49473;50.772;8.768;2022-09-17T09:13:56;4.93;;;2.37;;
2386;SDS011;49473;50.772;8.768;2022-09-17T09:16:31;5.47;;;2.43;;
2386;SDS011;49473;50.772;8.768;2022-09-17T09:19:04;4.13;;;2.30;;
2386;SDS011;49473;50.772;8.768;2022-09-17T09:21:43;5.30;;;2.43;;
2386;SDS011;49473;50.772;8.768;2022-09-17T09:24:21;5.57;;;2.50;;
2386;SDS011;49473;50.772;8.768;2022-09-17T09:26:52;4.17;;;2.10;;
2386;SDS011;49473;50.772;8.768;2022-09-17T09:29:28;3.40;;;2.70;;
2386;SDS011;49473;50.772;8.768;2022-09-17T09:32:14;3.20;;;2.70;;
2386;SDS011;49473;50.772;8.768;2022-09-17T09:34:49;8.70;;;2.40;;
2386;SDS011;49473;50.772;8.768;2022-09-17T09:37:16;5.90;;;2.57;;
2386;SDS011;49473;50.772;8.768;2022-09-17T09:39:47;3.33;;;2.53;;
2386;SDS011;49473;50.772;8.768;2022-09-17T09:42:18;3.83;;;2.23;;
2386;SDS011;49473;50.772;8.768;2022-09-17T09:44:55;3.30;;;2.20;;
2386;SDS011;49473;50.772;8.768;2022-09-17T09:47:31;4.27;;;2.10;;
2386;SDS011;49473;50.772;8.768;2022-09-17T09:50:22;4.90;;;1.53;;
2386;SDS011;49473;50.772;8.768;2022-09-17T09:52:57;3.10;;;2.00;;
2386;SDS011;49473;50.772;8.768;2022-09-17T09:55:36;3.90;;;2.23;;
2386;SDS011;49473;50.772;8.768;2022-09-17T09:58:22;3.67;;;1.60;;
2386;SDS011;49473;50.772;8.768;2022-09-17T10:00:53;4.27;;;1.93;;
2386;SDS011;49473;50.772;8.768;2022-09-17T10:03:22;4.20;;;2.60;;
2386;SDS011;49473;50.772;8.768;2022-09-17T10:05:52;2.60;;;1.47;;
2386;SDS011;49473;50.772;8.768;2022-09-17T10:08:21;5.40;;;1.73;;
2386;SDS011;49473;50.772;8.768;2022-09-17T10:10:55;2.03;;;1.83;;
2386;SDS011;49473;50.772;8.768;2022-09-17T10:13:24;6.43;;;1.80;;
2386;SDS011;49473;50.772;8.768;2022-09-17T10:15:55;2.53;;;2.13;;
2386;SDS011;49473;50.772;8.768;2022-09-17T10:18:24;3.00;;;1.73;;
2386;SDS011;49473;50.772;8.768;2022-09-17T10:20:54;4.37;;;2.10;;
2386;SDS011;49473;50.772;8.768;2022-09-17T10:23:23;3.50;;;1.90;;
2386;SDS011;49473;50.772;8.768;2022-09-17T10:25:51;3.00;;;1.93;;
2386;SDS011;49473;50.772;8.768;2022-09-17T10:28:27;1.80;;;1.47;;
2386;SDS011;49473;50.772;8.768;2022-09-17T10:30:58;3.00;;;1.73;;
2386;SDS011;49473;50.772;8.768;2022-09-17T10:33:28;2.10;;;1.37;;
2386;SDS011;49473;50.772;8.768;2022-09-17T10:35:57;1.57;;;1.30;;
2386;SDS011;49473;50.772;8.768;2022-09-17T10:38:30;4.13;;;1.20;;
2386;SDS011;49473;50.772;8.768;2022-09-17T10:41:18;3.53;;;1.10;;
2386;SDS011;49473;50.772;8.768;2022-09-17T10:43:47;2.20;;;1.30;;
2386;SDS011;49473;50.772;8.768;2022-09-17T10:46:15;2.00;;;1.03;;
2386;SDS011;49473;50.772;8.768;2022-09-17T10:48:55;2.67;;;1.10;;
2386;SDS011;49473;50.772;8.768;2022-09-17T10:51:25;3.00;;;1.50;;
2386;SDS011;49473;50.772;8.768;2022-09-17T10:53:55;2.87;;;1.50;;
2386;SDS011;49473;50.772;8.768;2022-09-17T10:56:33;2.90;;;1.47;;
2386;SDS011;49473;50.772;8.768;2022-09-17T10:59:05;2.93;;;2.03;;
2386;SDS011;49473;50.772;8.768;2022-09-17T11:01:52;4.33;;;1.63;;
2386;SDS011;49473;50.772;8.768;2022-09-17T11:04:28;4.47;;;1.37;;
2386;SDS011;49473;50.772;8.768;2022-09-17T11:07:21;2.40;;;1.47;;
2386;SDS011;49473;50.772;8.768;2022-09-17T11:10:00;3.00;;;1.67;;
2386;SDS011;49473;50.772;8.768;2022-09-17T11:12:39;2.43;;;1.33;;
2386;SDS011;49473;50.772;8.768;2022-09-17T11:15:18;2.90;;;1.60;;
2386;SDS011;49473;50.772;8.768;2022-09-17T11:18:01;4.30;;;1.80;;
2386;SDS011;49473;50.772;8.768;2022-09-17T11:20:46;3.83;;;2.10;;
2386;SDS011;49473;50.772;8.768;2022-09-17T11:23:25;3.50;;;1.90;;
2386;SDS011;49473;50.772;8.768;2022-09-17T11:26:10;3.43;;;1.60;;
2386;SDS011;49473;50.772;8.768;2022-09-17T11:28:52;3.43;;;1.70;;
2386;SDS011;49473;50.772;8.768;2022-09-17T11:31:27;3.03;;;1.53;;
2386;SDS011;49473;50.772;8.768;2022-09-17T11:34:03;2.57;;;1.30;;
2386;SDS011;49473;50.772;8.768;2022-09-17T11:36:47;1.77;;;1.30;;
2386;SDS011;49473;50.772;8.768;2022-09-17T11:39:20;2.90;;;1.37;;
2386;SDS011;49473;50.772;8.768;2022-09-17T11:41:49;3.07;;;1.43;;
2386;SDS011;49473;50.772;8.768;2022-09-17T11:44:20;2.30;;;1.37;;
2386;SDS011;49473;50.772;8.768;2022-09-17T11:46:51;2.00;;;1.63;;
2386;SDS011;49473;50.772;8.768;2022-09-17T11:49:24;4.07;;;1.47;;
2386;SDS011;49473;50.772;8.768;2022-09-17T11:51:59;2.40;;;1.67;;
2386;SDS011;49473;50.772;8.768;2022-09-17T11:54:30;2.20;;;1.33;;
2386;SDS011;49473;50.772;8.768;2022-09-17T11:57:05;1.37;;;1.20;;
2386;SDS011;49473;50.772;8.768;2022-09-17T11:59:37;1.60;;;1.13;;
2386;SDS011;49473;50.772;8.768;2022-09-17T12:02:12;3.47;;;1.17;;
2386;SDS011;49473;50.772;8.768;2022-09-17T12:04:46;1.53;;;1.03;;
2386;SDS011;49473;50.772;8.768;2022-09-17T12:07:24;1.70;;;1.10;;
2386;SDS011;49473;50.772;8.768;2022-09-17T12:09:58;2.40;;;1.03;;
2386;SDS011;49473;50.772;8.768;2022-09-17T12:12:32;3.33;;;1.33;;
2386;SDS011;49473;50.772;8.768;2022-09-17T12:15:12;1.00;;;0.83;;
2386;SDS011;49473;50.772;8.768;2022-09-17T12:17:43;2.87;;;0.80;;
2386;SDS011;49473;50.772;8.768;2022-09-17T12:20:17;2.70;;;1.33;;
2386;SDS011;49473;50.772;8.768;2022-09-17T12:22:51;0.90;;;0.73;;
2386;SDS011;49473;50.772;8.768;2022-09-17T12:25:19;2.17;;;1.00;;
2386;SDS011;49473;50.772;8.768;2022-09-17T12:27:48;1.67;;;0.80;;
2386;SDS011;49473;50.772;8.768;2022-09-17T12:30:19;2.60;;;1.13;;
2386;SDS011;49473;50.772;8.768;2022-09-17T12:33:01;1.53;;;0.80;;
2386;SDS011;49473;50.772;8.768;2022-09-17T12:41:54;2.47;;;0.73;;
2386;SDS011;49473;50.772;8.768;2022-09-17T12:44:36;1.23;;;0.80;;
2386;SDS011;49473;50.772;8.768;2022-09-17T12:47:38;1.90;;;0.90;;
2386;SDS011;49473;50.772;8.768;2022-09-17T12:50:30;1.70;;;0.90;;
2386;SDS011;49473;50.772;8.768;2022-09-17T12:53:13;2.40;;;1.37;;
2386;SDS011;49473;50.772;8.768;2022-09-17T12:55:55;2.00;;;1.10;;
2386;SDS011;49473;50.772;8.768;2022-09-17T12:58:32;2.80;;;1.20;;
2386;SDS011;49473;50.772;8.768;2022-09-17T13:01:13;1.80;;;0.97;;
2386;SDS011;49473;50.772;8.768;2022-09-17T13:03:48;1.90;;;1.00;;
2386;SDS011;49473;50.772;8.768;2022-09-17T13:06:23;1.83;;;1.00;;
2386;SDS011;49473;50.772;8.768;2022-09-17T13:09:25;1.73;;;0.90;;
2386;SDS011;49473;50.772;8.768;2022-09-17T13:12:12;1.20;;;0.80;;
2386;SDS011;49473;50.772;8.768;2022-09-17T13:14:54;1.10;;;0.57;;
2386;SDS011;49473;50.772;8.768;2022-09-17T13:17:30;1.87;;;1.00;;
2386;SDS011;49473;50.772;8.768;2022-09-17T13:20:10;1.20;;;1.10;;
2386;SDS011;49473;50.772;8.768;2022-09-17T13:22:42;0.80;;;0.77;;
2386;SDS011;49473;50.772;8.768;2022-09-17T13:25:11;1.10;;;0.73;;
2386;SDS011;49473;50.772;8.768;2022-09-17T13:27:43;1.53;;;1.43;;
2386;SDS011;49473;50.772;8.768;2022-09-17T13:30:11;1.40;;;1.00;;
2386;SDS011;49473;50.772;8.768;2022-09-17T13:32:43;3.77;;;1.10;;
2386;SDS011;49473;50.772;8.768;2022-09-17T13:38:12;2.80;;;1.30;;
2386;SDS011;49473;50.772;8.768;2022-09-17T13:40:40;1.20;;;1.10;;
2386;SDS011;49473;50.772;8.768;2022-09-17T13:43:08;1.23;;;1.00;;
2386;SDS011;49473;50.772;8.768;2022-09-17T13:48:35;0.80;;;0.80;;
2386;SDS011;49473;50.772;8.768;2022-09-17T13:54:08;1.03;;;0.83;;
2386;SDS011;49473;50.772;8.768;2022-09-17T13:56:37;1.83;;;0.87;;
2386;SDS011;49473;50.772;8.768;2022-09-17T13:59:08;1.97;;;0.90;;
2386;SDS011;49473;50.772;8.768;2022-09-17T14:04:35;0.80;;;0.73;;
2386;SDS011;49473;50.772;8.768;2022-09-17T14:07:31;1.70;;;1.20;;
2386;SDS011;49473;50.772;8.768;2022-09-17T14:09:59;2.77;;;1.17;;
2386;SDS011;49473;50.772;8.768;2022-09-17T14:15:33;1.63;;;0.90;;
2386;SDS011;49473;50.772;8.768;2022-09-17T14:18:35;3.17;;;1.07;;
2386;SDS011;49473;50.772;8.768;2022-09-17T14:21:12;1.63;;;0.90;;
2386;SDS011;49473;50.772;8.768;2022-09-17T14:23:45;1.67;;;1.00;;
2386;SDS011;49473;50.772;8.768;2022-09-17T14:26:16;0.97;;;0.90;;
2386;SDS011;49473;50.772;8.768;2022-09-17T14:28:52;1.60;;;0.70;;
2386;SDS011;49473;50.772;8.768;2022-09-17T14:31:29;2.00;;;0.97;;
2386;SDS011;49473;50.772;8.768;2022-09-17T14:34:00;1.60;;;0.90;;
2386;SDS011;49473;50.772;8.768;2022-09-17T14:36:29;0.90;;;0.70;;
2386;SDS011;49473;50.772;8.768;2022-09-17T14:38:59;1.23;;;0.77;;
2386;SDS011;49473;50.772;8.768;2022-09-17T14:41:28;2.23;;;0.93;;
2386;SDS011;49473;50.772;8.768;2022-09-17T14:44:00;0.80;;;0.73;;
2386;SDS011;49473;50.772;8.768;2022-09-17T14:46:32;1.83;;;0.80;;
2386;SDS011;49473;50.772;8.768;2022-09-17T14:49:14;0.70;;;0.70;;
2386;SDS011;49473;50.772;8.768;2022-09-17T14:51:44;0.93;;;0.67;;
2386;SDS011;49473;50.772;8.768;2022-09-17T14:54:16;3.07;;;1.10;;
2386;SDS011;49473;50.772;8.768;2022-09-17T14:56:49;0.77;;;0.50;;
2386;SDS011;49473;50.772;8.768;2022-09-17T14:59:28;0.83;;;0.70;;
2386;SDS011;49473;50.772;8.768;2022-09-17T15:02:25;1.63;;;0.80;;
2386;SDS011;49473;50.772;8.768;2022-09-17T15:04:54;1.20;;;0.70;;
2386;SDS011;49473;50.772;8.768;2022-09-17T15:07:22;0.97;;;0.60;;
2386;SDS011;49473;50.772;8.768;2022-09-17T15:09:49;0.90;;;0.70;;
2386;SDS011;49473;50.772;8.768;2022-09-17T15:12:19;0.60;;;0.50;;
2386;SDS011;49473;50.772;8.768;2022-09-17T15:14:50;0.70;;;0.70;;
2386;SDS011;49473;50.772;8.768;2022-09-17T15:17:19;1.43;;;0.73;;
2386;SDS011;49473;50.772;8.768;2022-09-17T15:19:48;1.03;;;0.60;;
2386;SDS011;49473;50.772;8.768;2022-09-17T15:22:17;2.40;;;0.80;;
2386;SDS011;49473;50.772;8.768;2022-09-17T15:24:48;1.30;;;0.90;;
2386;SDS011;49473;50.772;8.768;2022-09-17T15:27:19;1.10;;;0.90;;
2386;SDS011;49473;50.772;8.768;2022-09-17T15:29:50;2.13;;;1.17;;
2386;SDS011;49473;50.772;8.768;2022-09-17T15:32:19;0.77;;;0.57;;
2386;SDS011;49473;50.772;8.768;2022-09-17T15:37:48;1.43;;;0.87;;
2386;SDS011;49473;50.772;8.768;2022-09-17T15:40:22;1.80;;;0.87;;
2386;SDS011;49473;50.772;8.768;2022-09-17T15:43:00;0.87;;;0.80;;
2386;SDS011;49473;50.772;8.768;2022-09-17T15:45:30;1.33;;;0.70;;
2386;SDS011;49473;50.772;8.768;2022-09-17T15:48:01;1.53;;;0.97;;
2386;SDS011;49473;50.772;8.768;2022-09-17T15:50:29;1.57;;;0.90;;
2386;SDS011;49473;50.772;8.768;2022-09-17T15:53:10;4.80;;;0.80;;
2386;SDS011;49473;50.772;8.768;2022-09-17T15:55:39;1.13;;;1.03;;